sensor_id;sensor_type;location;lat;lon;timestamp;P1;durP1;ratioP1;P2;durP2;ratioP2
20369;SDS011;10344;47.592;9.600;2023-04-06T00:08:48;10.45;;;9.32;;
20369;SDS011;10344;47.592;9.600;2023-04-06T00:40:28;8.95;;;6.68;;
20369;SDS011;10344;47.592;9.600;2023-04-06T00:46:56;8.38;;;7.38;;
20369;SDS011;10344;47.592;9.600;2023-04-06T00:49:59;7.93;;;7.05;;
20369;SDS011;10344;47.592;9.600;2023-04-06T00:53:24;8.57;;;7.47;;
20369;SDS011;10344;47.592;9.600;2023-04-06T00:56:29;7.77;;;6.97;;
20369;SDS011;10344;47.592;9.600;2023-04-06T00:59:16;9.23;;;7.82;;
20369;SDS011;10344;47.592;9.600;2023-04-06T01:02:12;8.55;;;7.65;;
20369;SDS011;10344;47.592;9.600;2023-04-06T01:04:53;9.00;;;8.10;;
20369;SDS011;10344;47.592;9.600;2023-04-06T01:07:29;8.63;;;7.72;;
20369;SDS011;10344;47.592;9.600;2023-04-06T01:10:27;8.60;;;7.70;;
20369;SDS011;10344;47.592;9.600;2023-04-06T01:16:57;8.57;;;7.68;;
20369;SDS011;10344;47.592;9.600;2023-04-06T01:19:26;8.88;;;7.97;;
20369;SDS011;10344;47.592;9.600;2023-04-06T01:21:52;8.98;;;8.07;;
20369;SDS011;10344;47.592;9.600;2023-04-06T01:24:22;8.25;;;7.45;;
20369;SDS011;10344;47.592;9.600;2023-04-06T01:30:11;7.97;;;7.00;;
20369;SDS011;10344;47.592;9.600;2023-04-06T01:32:37;8.20;;;7.00;;
20369;SDS011;10344;47.592;9.600;2023-04-06T01:35:02;8.95;;;6.95;;
20369;SDS011;10344;47.592;9.600;2023-04-06T01:37:28;8.13;;;7.17;;
20369;SDS011;10344;47.592;9.600;2023-04-06T01:40:02;8.45;;;7.60;;
20369;SDS011;10344;47.592;9.600;2023-04-06T01:42:30;8.18;;;7.30;;
20369;SDS011;10344;47.592;9.600;2023-04-06T01:48:44;7.53;;;6.80;;
20369;SDS011;10344;47.592;9.600;2023-04-06T01:55:35;7.13;;;6.43;;
20369;SDS011;10344;47.592;9.600;2023-04-06T01:59:00;8.77;;;6.90;;
20369;SDS011;10344;47.592;9.600;2023-04-06T02:02:24;8.25;;;6.85;;
20369;SDS011;10344;47.592;9.600;2023-04-06T02:04:52;7.82;;;6.57;;
20369;SDS011;10344;47.592;9.600;2023-04-06T02:07:23;7.25;;;6.38;;
20369;SDS011;10344;47.592;9.600;2023-04-06T02:09:53;7.22;;;6.25;;
20369;SDS011;10344;47.592;9.600;2023-04-06T02:12:20;7.10;;;6.38;;
20369;SDS011;10344;47.592;9.600;2023-04-06T02:14:46;7.50;;;6.80;;
20369;SDS011;10344;47.592;9.600;2023-04-06T02:17:12;7.43;;;6.72;;
20369;SDS011;10344;47.592;9.600;2023-04-06T02:19:38;7.00;;;6.30;;
20369;SDS011;10344;47.592;9.600;2023-04-06T02:28:29;8.13;;;6.90;;
20369;SDS011;10344;47.592;9.600;2023-04-06T06:28:21;10.90;;;7.20;;
20369;SDS011;10344;47.592;9.600;2023-04-06T06:45:37;22.38;;;13.73;;
20369;SDS011;10344;47.592;9.600;2023-04-06T06:54:44;8.03;;;7.10;;
20369;SDS011;10344;47.592;9.600;2023-04-06T06:57:10;8.63;;;7.10;;
20369;SDS011;10344;47.592;9.600;2023-04-06T06:59:35;8.93;;;6.80;;
20369;SDS011;10344;47.592;9.600;2023-04-06T07:02:01;7.33;;;6.57;;
20369;SDS011;10344;47.592;9.600;2023-04-06T07:04:31;8.80;;;6.50;;
20369;SDS011;10344;47.592;9.600;2023-04-06T07:06:57;7.10;;;6.40;;
20369;SDS011;10344;47.592;9.600;2023-04-06T07:09:23;8.98;;;6.88;;
20369;SDS011;10344;47.592;9.600;2023-04-06T07:11:54;7.05;;;6.35;;
20369;SDS011;10344;47.592;9.600;2023-04-06T07:14:22;6.63;;;6.00;;
20369;SDS011;10344;47.592;9.600;2023-04-06T07:16:47;6.53;;;5.70;;
20369;SDS011;10344;47.592;9.600;2023-04-06T07:19:15;6.95;;;5.85;;
20369;SDS011;10344;47.592;9.600;2023-04-06T07:21:42;5.95;;;5.38;;
20369;SDS011;10344;47.592;9.600;2023-04-06T07:24:10;6.88;;;5.22;;
20369;SDS011;10344;47.592;9.600;2023-04-06T07:26:35;6.20;;;5.40;;
20369;SDS011;10344;47.592;9.600;2023-04-06T07:29:03;6.60;;;5.38;;
20369;SDS011;10344;47.592;9.600;2023-04-06T07:31:29;6.97;;;5.30;;
20369;SDS011;10344;47.592;9.600;2023-04-06T07:34:00;6.85;;;5.93;;
20369;SDS011;10344;47.592;9.600;2023-04-06T07:36:26;6.40;;;5.80;;
20369;SDS011;10344;47.592;9.600;2023-04-06T07:38:52;6.60;;;6.00;;
20369;SDS011;10344;47.592;9.600;2023-04-06T07:41:20;8.20;;;5.93;;
20369;SDS011;10344;47.592;9.600;2023-04-06T07:43:45;6.13;;;5.53;;
20369;SDS011;10344;47.592;9.600;2023-04-06T07:46:13;6.38;;;5.72;;
20369;SDS011;10344;47.592;9.600;2023-04-06T07:48:39;6.40;;;5.53;;
20369;SDS011;10344;47.592;9.600;2023-04-06T07:51:05;7.07;;;6.25;;
20369;SDS011;10344;47.592;9.600;2023-04-06T07:53:35;7.20;;;6.50;;
20369;SDS011;10344;47.592;9.600;2023-04-06T07:56:04;7.07;;;6.17;;
20369;SDS011;10344;47.592;9.600;2023-04-06T07:58:33;7.03;;;6.07;;
20369;SDS011;10344;47.592;9.600;2023-04-06T08:01:04;6.97;;;6.27;;
20369;SDS011;10344;47.592;9.600;2023-04-06T08:03:30;6.88;;;6.28;;
20369;SDS011;10344;47.592;9.600;2023-04-06T08:06:03;6.88;;;6.18;;
20369;SDS011;10344;47.592;9.600;2023-04-06T08:08:31;7.30;;;6.60;;
20369;SDS011;10344;47.592;9.600;2023-04-06T08:11:01;8.85;;;7.03;;
20369;SDS011;10344;47.592;9.600;2023-04-06T08:13:27;7.82;;;7.00;;
20369;SDS011;10344;47.592;9.600;2023-04-06T08:15:58;7.22;;;6.50;;
20369;SDS011;10344;47.592;9.600;2023-04-06T08:18:25;8.00;;;6.43;;
20369;SDS011;10344;47.592;9.600;2023-04-06T08:20:58;7.93;;;6.43;;
20369;SDS011;10344;47.592;9.600;2023-04-06T08:23:24;8.23;;;6.75;;
20369;SDS011;10344;47.592;9.600;2023-04-06T08:25:50;7.73;;;6.70;;
20369;SDS011;10344;47.592;9.600;2023-04-06T08:28:18;7.28;;;6.47;;
20369;SDS011;10344;47.592;9.600;2023-04-06T08:30:45;7.55;;;6.85;;
20369;SDS011;10344;47.592;9.600;2023-04-06T08:33:12;7.35;;;6.63;;
20369;SDS011;10344;47.592;9.600;2023-04-06T08:35:41;7.60;;;6.90;;
20369;SDS011;10344;47.592;9.600;2023-04-06T08:38:06;7.63;;;6.90;;
20369;SDS011;10344;47.592;9.600;2023-04-06T08:40:37;8.10;;;7.00;;
20369;SDS011;10344;47.592;9.600;2023-04-06T08:43:07;8.15;;;7.38;;
20369;SDS011;10344;47.592;9.600;2023-04-06T08:45:38;7.65;;;6.95;;
20369;SDS011;10344;47.592;9.600;2023-04-06T08:48:11;8.00;;;7.28;;
20369;SDS011;10344;47.592;9.600;2023-04-06T08:50:37;8.10;;;6.97;;
20369;SDS011;10344;47.592;9.600;2023-04-06T08:53:06;7.63;;;6.85;;
20369;SDS011;10344;47.592;9.600;2023-04-06T08:55:33;7.65;;;6.75;;
20369;SDS011;10344;47.592;9.600;2023-04-06T08:58:02;7.93;;;7.13;;
20369;SDS011;10344;47.592;9.600;2023-04-06T09:00:38;8.00;;;7.20;;
20369;SDS011;10344;47.592;9.600;2023-04-06T09:03:07;7.60;;;6.90;;
20369;SDS011;10344;47.592;9.600;2023-04-06T09:05:39;8.50;;;7.55;;
20369;SDS011;10344;47.592;9.600;2023-04-06T09:08:05;7.95;;;6.97;;
20369;SDS011;10344;47.592;9.600;2023-04-06T09:10:32;7.90;;;7.10;;
20369;SDS011;10344;47.592;9.600;2023-04-06T09:13:06;7.35;;;6.65;;
20369;SDS011;10344;47.592;9.600;2023-04-06T09:15:38;8.23;;;7.07;;
20369;SDS011;10344;47.592;9.600;2023-04-06T09:18:06;8.23;;;7.38;;
20369;SDS011;10344;47.592;9.600;2023-04-06T09:20:34;8.20;;;6.97;;
20369;SDS011;10344;47.592;9.600;2023-04-06T09:23:03;8.00;;;7.05;;
20369;SDS011;10344;47.592;9.600;2023-04-06T09:25:45;8.17;;;7.37;;
20369;SDS011;10344;47.592;9.600;2023-04-06T09:28:12;7.80;;;7.00;;
20369;SDS011;10344;47.592;9.600;2023-04-06T09:30:47;7.80;;;7.00;;
20369;SDS011;10344;47.592;9.600;2023-04-06T09:33:22;9.55;;;7.18;;
20369;SDS011;10344;47.592;9.600;2023-04-06T09:36:07;8.15;;;7.35;;
20369;SDS011;10344;47.592;9.600;2023-04-06T09:38:50;8.48;;;7.45;;
20369;SDS011;10344;47.592;9.600;2023-04-06T09:41:28;7.95;;;7.10;;
20369;SDS011;10344;47.592;9.600;2023-04-06T09:46:39;8.50;;;7.60;;
20369;SDS011;10344;47.592;9.600;2023-04-06T09:49:11;8.23;;;7.22;;
20369;SDS011;10344;47.592;9.600;2023-04-06T09:51:39;8.18;;;7.38;;
20369;SDS011;10344;47.592;9.600;2023-04-06T09:54:11;9.15;;;7.82;;
20369;SDS011;10344;47.592;9.600;2023-04-06T09:59:26;8.98;;;7.57;;
20369;SDS011;10344;47.592;9.600;2023-04-06T10:02:08;8.00;;;7.20;;
20369;SDS011;10344;47.592;9.600;2023-04-06T10:04:43;7.90;;;7.10;;
20369;SDS011;10344;47.592;9.600;2023-04-06T10:07:35;8.43;;;7.53;;
20369;SDS011;10344;47.592;9.600;2023-04-06T10:10:06;9.25;;;8.18;;
20369;SDS011;10344;47.592;9.600;2023-04-06T10:12:36;9.88;;;8.15;;
20369;SDS011;10344;47.592;9.600;2023-04-06T10:15:03;8.75;;;7.25;;
20369;SDS011;10344;47.592;9.600;2023-04-06T10:17:29;7.77;;;6.97;;
20369;SDS011;10344;47.592;9.600;2023-04-06T10:20:06;8.07;;;7.27;;
20369;SDS011;10344;47.592;9.600;2023-04-06T10:22:56;8.40;;;7.60;;
20369;SDS011;10344;47.592;9.600;2023-04-06T10:31:01;10.25;;;9.27;;
20369;SDS011;10344;47.592;9.600;2023-04-06T10:33:29;9.87;;;8.87;;
20369;SDS011;10344;47.592;9.600;2023-04-06T10:35:55;10.32;;;9.32;;
20369;SDS011;10344;47.592;9.600;2023-04-06T10:38:40;9.90;;;8.93;;
20369;SDS011;10344;47.592;9.600;2023-04-06T10:41:09;10.45;;;9.38;;
20369;SDS011;10344;47.592;9.600;2023-04-06T10:43:41;10.07;;;9.07;;
20369;SDS011;10344;47.592;9.600;2023-04-06T10:46:07;9.93;;;8.93;;
20369;SDS011;10344;47.592;9.600;2023-04-06T10:48:41;10.60;;;9.15;;
20369;SDS011;10344;47.592;9.600;2023-04-06T10:51:13;9.18;;;8.27;;
20369;SDS011;10344;47.592;9.600;2023-04-06T10:53:41;10.20;;;8.27;;
20369;SDS011;10344;47.592;9.600;2023-04-06T10:56:13;9.68;;;8.68;;
20369;SDS011;10344;47.592;9.600;2023-04-06T10:58:50;9.50;;;8.60;;
20369;SDS011;10344;47.592;9.600;2023-04-06T11:01:20;9.55;;;8.60;;
20369;SDS011;10344;47.592;9.600;2023-04-06T11:03:56;12.40;;;8.55;;
20369;SDS011;10344;47.592;9.600;2023-04-06T11:06:26;8.70;;;7.80;;
20369;SDS011;10344;47.592;9.600;2023-04-06T11:08:54;8.57;;;7.78;;
20369;SDS011;10344;47.592;9.600;2023-04-06T11:11:24;9.63;;;8.63;;
20369;SDS011;10344;47.592;9.600;2023-04-06T11:14:01;9.02;;;8.13;;
20369;SDS011;10344;47.592;9.600;2023-04-06T11:16:29;9.38;;;8.38;;
20369;SDS011;10344;47.592;9.600;2023-04-06T11:19:02;9.00;;;8.07;;
20369;SDS011;10344;47.592;9.600;2023-04-06T11:21:33;9.30;;;8.35;;
20369;SDS011;10344;47.592;9.600;2023-04-06T11:26:44;9.50;;;7.95;;
20369;SDS011;10344;47.592;9.600;2023-04-06T11:29:28;8.95;;;7.80;;
20369;SDS011;10344;47.592;9.600;2023-04-06T11:31:59;8.65;;;7.70;;
20369;SDS011;10344;47.592;9.600;2023-04-06T11:34:30;8.53;;;7.73;;
20369;SDS011;10344;47.592;9.600;2023-04-06T11:36:59;8.70;;;7.25;;
20369;SDS011;10344;47.592;9.600;2023-04-06T11:39:31;8.27;;;7.45;;
20369;SDS011;10344;47.592;9.600;2023-04-06T11:42:06;8.70;;;7.05;;
20369;SDS011;10344;47.592;9.600;2023-04-06T11:44:35;8.80;;;7.32;;
20369;SDS011;10344;47.592;9.600;2023-04-06T11:47:16;9.65;;;7.80;;
20369;SDS011;10344;47.592;9.600;2023-04-06T11:49:45;8.38;;;6.60;;
20369;SDS011;10344;47.592;9.600;2023-04-06T11:54:44;8.60;;;7.32;;
20369;SDS011;10344;47.592;9.600;2023-04-06T11:57:10;7.90;;;6.97;;
20369;SDS011;10344;47.592;9.600;2023-04-06T11:59:36;7.53;;;6.40;;
20369;SDS011;10344;47.592;9.600;2023-04-06T12:02:02;8.10;;;6.80;;
20369;SDS011;10344;47.592;9.600;2023-04-06T12:04:37;6.47;;;5.28;;
20369;SDS011;10344;47.592;9.600;2023-04-06T12:07:07;7.40;;;6.43;;
20369;SDS011;10344;47.592;9.600;2023-04-06T12:09:37;8.85;;;6.75;;
20369;SDS011;10344;47.592;9.600;2023-04-06T12:12:06;7.50;;;6.68;;
20369;SDS011;10344;47.592;9.600;2023-04-06T12:14:34;8.60;;;7.00;;
20369;SDS011;10344;47.592;9.600;2023-04-06T12:17:03;6.68;;;5.97;;
20369;SDS011;10344;47.592;9.600;2023-04-06T12:19:37;7.25;;;5.93;;
20369;SDS011;10344;47.592;9.600;2023-04-06T12:22:05;6.93;;;5.68;;
20369;SDS011;10344;47.592;9.600;2023-04-06T12:24:34;6.57;;;5.88;;
20369;SDS011;10344;47.592;9.600;2023-04-06T12:27:00;6.07;;;5.10;;
20369;SDS011;10344;47.592;9.600;2023-04-06T12:29:29;5.90;;;5.05;;
20369;SDS011;10344;47.592;9.600;2023-04-06T12:31:55;6.28;;;5.03;;
20369;SDS011;10344;47.592;9.600;2023-04-06T12:34:21;7.07;;;5.37;;
20369;SDS011;10344;47.592;9.600;2023-04-06T12:36:49;6.47;;;5.22;;
20369;SDS011;10344;47.592;9.600;2023-04-06T12:39:18;6.28;;;4.97;;
20369;SDS011;10344;47.592;9.600;2023-04-06T12:41:44;5.30;;;4.57;;
20369;SDS011;10344;47.592;9.600;2023-04-06T12:44:19;7.47;;;5.28;;
20369;SDS011;10344;47.592;9.600;2023-04-06T12:46:50;6.72;;;5.30;;
20369;SDS011;10344;47.592;9.600;2023-04-06T12:49:16;6.43;;;5.07;;
20369;SDS011;10344;47.592;9.600;2023-04-06T12:51:43;8.10;;;6.20;;
20369;SDS011;10344;47.592;9.600;2023-04-06T12:54:09;6.83;;;5.73;;
20369;SDS011;10344;47.592;9.600;2023-04-06T12:56:37;6.83;;;5.30;;
20369;SDS011;10344;47.592;9.600;2023-04-06T12:59:08;11.20;;;8.18;;
20369;SDS011;10344;47.592;9.600;2023-04-06T13:01:34;7.50;;;6.70;;
20369;SDS011;10344;47.592;9.600;2023-04-06T13:04:00;7.32;;;6.13;;
20369;SDS011;10344;47.592;9.600;2023-04-06T13:06:33;7.03;;;5.87;;
20369;SDS011;10344;47.592;9.600;2023-04-06T13:08:59;6.87;;;5.90;;
20369;SDS011;10344;47.592;9.600;2023-04-06T13:11:29;7.70;;;5.75;;
20369;SDS011;10344;47.592;9.600;2023-04-06T13:13:58;7.18;;;5.90;;
20369;SDS011;10344;47.592;9.600;2023-04-06T13:16:36;8.52;;;6.93;;
20369;SDS011;10344;47.592;9.600;2023-04-06T13:19:05;7.07;;;5.63;;
20369;SDS011;10344;47.592;9.600;2023-04-06T13:21:40;6.90;;;6.20;;
20369;SDS011;10344;47.592;9.600;2023-04-06T13:24:06;8.77;;;6.30;;
20369;SDS011;10344;47.592;9.600;2023-04-06T13:26:34;7.70;;;6.63;;
20369;SDS011;10344;47.592;9.600;2023-04-06T13:29:06;7.82;;;6.18;;
20369;SDS011;10344;47.592;9.600;2023-04-06T13:31:32;8.50;;;6.80;;
20369;SDS011;10344;47.592;9.600;2023-04-06T13:33:57;8.38;;;6.97;;
20369;SDS011;10344;47.592;9.600;2023-04-06T13:36:23;8.32;;;6.93;;
20369;SDS011;10344;47.592;9.600;2023-04-06T13:38:54;7.90;;;7.00;;
20369;SDS011;10344;47.592;9.600;2023-04-06T13:41:28;8.02;;;7.22;;
20369;SDS011;10344;47.592;9.600;2023-04-06T13:43:53;8.55;;;7.18;;
20369;SDS011;10344;47.592;9.600;2023-04-06T13:46:23;8.80;;;6.75;;
20369;SDS011;10344;47.592;9.600;2023-04-06T13:48:50;8.80;;;6.85;;
20369;SDS011;10344;47.592;9.600;2023-04-06T13:51:16;8.95;;;7.20;;
20369;SDS011;10344;47.592;9.600;2023-04-06T13:53:41;9.00;;;7.27;;
20369;SDS011;10344;47.592;9.600;2023-04-06T13:56:12;10.65;;;7.35;;
20369;SDS011;10344;47.592;9.600;2023-04-06T13:58:45;10.07;;;7.95;;
20369;SDS011;10344;47.592;9.600;2023-04-06T14:01:11;8.05;;;6.97;;
20369;SDS011;10344;47.592;9.600;2023-04-06T14:03:38;9.00;;;7.63;;
20369;SDS011;10344;47.592;9.600;2023-04-06T14:06:10;10.18;;;7.68;;
20369;SDS011;10344;47.592;9.600;2023-04-06T14:08:46;9.27;;;7.65;;
20369;SDS011;10344;47.592;9.600;2023-04-06T14:11:12;9.57;;;7.78;;
20369;SDS011;10344;47.592;9.600;2023-04-06T14:13:39;9.68;;;7.70;;
20369;SDS011;10344;47.592;9.600;2023-04-06T14:16:07;10.10;;;8.70;;
20369;SDS011;10344;47.592;9.600;2023-04-06T14:18:41;9.57;;;7.60;;
20369;SDS011;10344;47.592;9.600;2023-04-06T14:21:07;9.80;;;7.85;;
20369;SDS011;10344;47.592;9.600;2023-04-06T14:23:41;9.50;;;7.88;;
20369;SDS011;10344;47.592;9.600;2023-04-06T14:26:07;9.93;;;7.82;;
20369;SDS011;10344;47.592;9.600;2023-04-06T14:28:34;9.40;;;8.10;;
20369;SDS011;10344;47.592;9.600;2023-04-06T14:31:09;10.10;;;8.30;;
20369;SDS011;10344;47.592;9.600;2023-04-06T14:33:39;10.95;;;8.68;;
20369;SDS011;10344;47.592;9.600;2023-04-06T14:36:05;10.73;;;8.82;;
20369;SDS011;10344;47.592;9.600;2023-04-06T14:38:31;9.90;;;8.00;;
20369;SDS011;10344;47.592;9.600;2023-04-06T14:40:57;9.77;;;8.07;;
20369;SDS011;10344;47.592;9.600;2023-04-06T14:43:23;9.88;;;8.35;;
20369;SDS011;10344;47.592;9.600;2023-04-06T14:45:54;11.07;;;8.50;;
20369;SDS011;10344;47.592;9.600;2023-04-06T14:48:24;10.65;;;8.60;;
20369;SDS011;10344;47.592;9.600;2023-04-06T14:50:55;9.98;;;8.50;;
20369;SDS011;10344;47.592;9.600;2023-04-06T14:53:22;11.38;;;8.32;;
20369;SDS011;10344;47.592;9.600;2023-04-06T14:55:48;10.93;;;8.40;;
20369;SDS011;10344;47.592;9.600;2023-04-06T14:58:19;11.43;;;8.43;;
20369;SDS011;10344;47.592;9.600;2023-04-06T15:00:46;12.00;;;8.33;;
20369;SDS011;10344;47.592;9.600;2023-04-06T15:03:12;9.68;;;8.60;;
20369;SDS011;10344;47.592;9.600;2023-04-06T15:05:40;10.43;;;8.73;;
20369;SDS011;10344;47.592;9.600;2023-04-06T15:08:06;10.25;;;8.60;;
20369;SDS011;10344;47.592;9.600;2023-04-06T15:10:36;10.52;;;8.32;;
20369;SDS011;10344;47.592;9.600;2023-04-06T15:13:02;10.20;;;8.70;;
20369;SDS011;10344;47.592;9.600;2023-04-06T15:15:30;10.90;;;8.45;;
20369;SDS011;10344;47.592;9.600;2023-04-06T15:18:03;11.48;;;8.93;;
20369;SDS011;10344;47.592;9.600;2023-04-06T15:20:31;10.20;;;8.57;;
20369;SDS011;10344;47.592;9.600;2023-04-06T15:22:57;11.40;;;8.40;;
20369;SDS011;10344;47.592;9.600;2023-04-06T15:25:24;10.03;;;8.10;;
20369;SDS011;10344;47.592;9.600;2023-04-06T15:27:53;10.75;;;8.52;;
20369;SDS011;10344;47.592;9.600;2023-04-06T15:30:19;11.23;;;8.63;;
20369;SDS011;10344;47.592;9.600;2023-04-06T15:32:51;10.35;;;8.43;;
20369;SDS011;10344;47.592;9.600;2023-04-06T15:35:24;11.23;;;9.18;;
20369;SDS011;10344;47.592;9.600;2023-04-06T15:37:50;9.52;;;8.40;;
20369;SDS011;10344;47.592;9.600;2023-04-06T15:40:19;11.73;;;8.75;;
20369;SDS011;10344;47.592;9.600;2023-04-06T15:42:45;11.20;;;8.52;;
20369;SDS011;10344;47.592;9.600;2023-04-06T15:45:16;11.57;;;8.80;;
20369;SDS011;10344;47.592;9.600;2023-04-06T15:47:45;11.20;;;8.65;;
20369;SDS011;10344;47.592;9.600;2023-04-06T15:50:14;12.47;;;9.00;;
20369;SDS011;10344;47.592;9.600;2023-04-06T15:52:40;10.07;;;8.30;;
20369;SDS011;10344;47.592;9.600;2023-04-06T15:55:06;10.80;;;8.70;;
20369;SDS011;10344;47.592;9.600;2023-04-06T15:57:33;10.68;;;8.90;;
20369;SDS011;10344;47.592;9.600;2023-04-06T15:59:58;11.27;;;8.73;;
20369;SDS011;10344;47.592;9.600;2023-04-06T16:02:25;12.00;;;8.77;;
20369;SDS011;10344;47.592;9.600;2023-04-06T16:04:54;10.73;;;8.68;;
20369;SDS011;10344;47.592;9.600;2023-04-06T16:07:21;10.83;;;8.60;;
20369;SDS011;10344;47.592;9.600;2023-04-06T16:09:47;11.02;;;8.20;;
20369;SDS011;10344;47.592;9.600;2023-04-06T16:12:14;12.13;;;8.63;;
20369;SDS011;10344;47.592;9.600;2023-04-06T16:14:42;9.98;;;8.20;;
20369;SDS011;10344;47.592;9.600;2023-04-06T16:17:07;9.93;;;8.13;;
20369;SDS011;10344;47.592;9.600;2023-04-06T16:19:33;9.20;;;7.65;;
20369;SDS011;10344;47.592;9.600;2023-04-06T16:22:02;9.82;;;8.10;;
20369;SDS011;10344;47.592;9.600;2023-04-06T16:24:28;9.75;;;7.72;;
20369;SDS011;10344;47.592;9.600;2023-04-06T16:26:54;9.80;;;7.28;;
20369;SDS011;10344;47.592;9.600;2023-04-06T16:29:21;10.75;;;8.40;;
20369;SDS011;10344;47.592;9.600;2023-04-06T16:31:55;11.05;;;8.23;;
20369;SDS011;10344;47.592;9.600;2023-04-06T16:34:21;11.10;;;8.50;;
20369;SDS011;10344;47.592;9.600;2023-04-06T16:36:47;14.07;;;10.33;;
20369;SDS011;10344;47.592;9.600;2023-04-06T16:39:13;11.93;;;9.67;;
20369;SDS011;10344;47.592;9.600;2023-04-06T16:41:40;12.60;;;8.63;;
20369;SDS011;10344;47.592;9.600;2023-04-06T16:44:09;12.93;;;8.95;;
20369;SDS011;10344;47.592;9.600;2023-04-06T16:46:37;12.32;;;10.13;;
20369;SDS011;10344;47.592;9.600;2023-04-06T16:49:05;11.67;;;8.43;;
20369;SDS011;10344;47.592;9.600;2023-04-06T16:51:33;12.43;;;9.20;;
20369;SDS011;10344;47.592;9.600;2023-04-06T16:54:02;11.30;;;8.95;;
20369;SDS011;10344;47.592;9.600;2023-04-06T16:56:33;10.98;;;8.40;;
20369;SDS011;10344;47.592;9.600;2023-04-06T16:59:01;11.17;;;8.07;;
20369;SDS011;10344;47.592;9.600;2023-04-06T17:01:30;11.82;;;8.80;;
20369;SDS011;10344;47.592;9.600;2023-04-06T17:03:58;12.55;;;8.43;;
20369;SDS011;10344;47.592;9.600;2023-04-06T17:06:27;11.82;;;8.73;;
20369;SDS011;10344;47.592;9.600;2023-04-06T17:08:52;12.80;;;9.17;;
20369;SDS011;10344;47.592;9.600;2023-04-06T17:11:18;11.50;;;8.30;;
20369;SDS011;10344;47.592;9.600;2023-04-06T17:13:50;10.25;;;7.82;;
20369;SDS011;10344;47.592;9.600;2023-04-06T17:16:15;10.07;;;7.35;;
20369;SDS011;10344;47.592;9.600;2023-04-06T17:18:44;12.57;;;9.00;;
20369;SDS011;10344;47.592;9.600;2023-04-06T17:21:16;9.80;;;7.80;;
20369;SDS011;10344;47.592;9.600;2023-04-06T17:23:45;9.98;;;8.15;;
20369;SDS011;10344;47.592;9.600;2023-04-06T17:26:11;9.48;;;7.30;;
20369;SDS011;10344;47.592;9.600;2023-04-06T17:28:42;9.57;;;7.40;;
20369;SDS011;10344;47.592;9.600;2023-04-06T17:31:08;9.13;;;6.97;;
20369;SDS011;10344;47.592;9.600;2023-04-06T17:33:35;10.75;;;7.90;;
20369;SDS011;10344;47.592;9.600;2023-04-06T17:36:03;10.05;;;7.47;;
20369;SDS011;10344;47.592;9.600;2023-04-06T17:38:30;9.15;;;6.65;;
20369;SDS011;10344;47.592;9.600;2023-04-06T17:40:56;9.73;;;7.00;;
20369;SDS011;10344;47.592;9.600;2023-04-06T17:43:21;9.73;;;7.30;;
20369;SDS011;10344;47.592;9.600;2023-04-06T17:45:48;9.35;;;7.22;;
20369;SDS011;10344;47.592;9.600;2023-04-06T17:48:19;10.23;;;7.63;;
20369;SDS011;10344;47.592;9.600;2023-04-06T17:50:47;8.25;;;6.70;;
20369;SDS011;10344;47.592;9.600;2023-04-06T17:53:12;10.97;;;8.40;;
20369;SDS011;10344;47.592;9.600;2023-04-06T17:55:38;13.63;;;9.87;;
20369;SDS011;10344;47.592;9.600;2023-04-06T17:58:04;20.17;;;14.63;;
20369;SDS011;10344;47.592;9.600;2023-04-06T18:00:29;14.50;;;10.88;;
20369;SDS011;10344;47.592;9.600;2023-04-06T18:03:03;12.25;;;9.10;;
20369;SDS011;10344;47.592;9.600;2023-04-06T18:05:29;10.25;;;7.97;;
20369;SDS011;10344;47.592;9.600;2023-04-06T18:07:54;10.63;;;8.03;;
20369;SDS011;10344;47.592;9.600;2023-04-06T18:10:21;9.20;;;7.40;;
20369;SDS011;10344;47.592;9.600;2023-04-06T18:12:47;9.00;;;6.95;;
20369;SDS011;10344;47.592;9.600;2023-04-06T18:15:13;9.43;;;7.30;;
20369;SDS011;10344;47.592;9.600;2023-04-06T18:17:42;9.00;;;7.13;;
20369;SDS011;10344;47.592;9.600;2023-04-06T18:20:11;11.23;;;8.10;;
20369;SDS011;10344;47.592;9.600;2023-04-06T18:22:36;10.13;;;7.33;;
20369;SDS011;10344;47.592;9.600;2023-04-06T18:25:08;10.82;;;8.07;;
20369;SDS011;10344;47.592;9.600;2023-04-06T18:27:38;10.27;;;7.75;;
20369;SDS011;10344;47.592;9.600;2023-04-06T18:30:04;10.52;;;7.55;;
20369;SDS011;10344;47.592;9.600;2023-04-06T18:32:32;11.35;;;8.50;;
20369;SDS011;10344;47.592;9.600;2023-04-06T18:35:00;11.90;;;8.82;;
20369;SDS011;10344;47.592;9.600;2023-04-06T18:37:27;10.73;;;8.20;;
20369;SDS011;10344;47.592;9.600;2023-04-06T18:39:52;9.70;;;7.65;;
20369;SDS011;10344;47.592;9.600;2023-04-06T18:42:18;9.80;;;7.32;;
20369;SDS011;10344;47.592;9.600;2023-04-06T18:44:54;9.82;;;7.43;;
20369;SDS011;10344;47.592;9.600;2023-04-06T18:47:22;9.30;;;7.37;;
20369;SDS011;10344;47.592;9.600;2023-04-06T18:49:55;10.18;;;7.68;;
20369;SDS011;10344;47.592;9.600;2023-04-06T18:52:23;9.05;;;7.47;;
20369;SDS011;10344;47.592;9.600;2023-04-06T18:54:50;15.52;;;10.57;;
20369;SDS011;10344;47.592;9.600;2023-04-06T18:57:16;32.83;;;21.83;;
20369;SDS011;10344;47.592;9.600;2023-04-06T18:59:41;19.25;;;13.07;;
20369;SDS011;10344;47.592;9.600;2023-04-06T19:02:07;11.70;;;8.70;;
20369;SDS011;10344;47.592;9.600;2023-04-06T19:04:38;9.32;;;7.53;;
20369;SDS011;10344;47.592;9.600;2023-04-06T19:07:04;10.95;;;7.90;;
20369;SDS011;10344;47.592;9.600;2023-04-06T19:09:35;11.32;;;8.48;;
20369;SDS011;10344;47.592;9.600;2023-04-06T19:12:00;10.00;;;7.38;;
20369;SDS011;10344;47.592;9.600;2023-04-06T19:14:29;11.63;;;8.80;;
20369;SDS011;10344;47.592;9.600;2023-04-06T19:17:01;10.10;;;8.18;;
20369;SDS011;10344;47.592;9.600;2023-04-06T19:19:32;8.85;;;7.32;;
20369;SDS011;10344;47.592;9.600;2023-04-06T19:21:58;9.38;;;7.60;;
20369;SDS011;10344;47.592;9.600;2023-04-06T19:24:30;10.45;;;8.25;;
20369;SDS011;10344;47.592;9.600;2023-04-06T19:26:59;13.17;;;9.33;;
20369;SDS011;10344;47.592;9.600;2023-04-06T19:29:25;11.63;;;9.00;;
20369;SDS011;10344;47.592;9.600;2023-04-06T19:31:51;12.50;;;8.77;;
20369;SDS011;10344;47.592;9.600;2023-04-06T19:34:23;11.60;;;8.77;;
20369;SDS011;10344;47.592;9.600;2023-04-06T19:36:48;10.80;;;8.10;;
20369;SDS011;10344;47.592;9.600;2023-04-06T19:39:14;10.67;;;8.80;;
20369;SDS011;10344;47.592;9.600;2023-04-06T19:41:43;10.10;;;7.75;;
20369;SDS011;10344;47.592;9.600;2023-04-06T19:44:13;10.48;;;8.45;;
20369;SDS011;10344;47.592;9.600;2023-04-06T19:46:39;11.27;;;9.10;;
20369;SDS011;10344;47.592;9.600;2023-04-06T19:49:06;12.52;;;8.77;;
20369;SDS011;10344;47.592;9.600;2023-04-06T19:51:32;13.80;;;9.63;;
20369;SDS011;10344;47.592;9.600;2023-04-06T19:54:00;11.50;;;8.10;;
20369;SDS011;10344;47.592;9.600;2023-04-06T19:56:28;9.18;;;7.18;;
20369;SDS011;10344;47.592;9.600;2023-04-06T19:58:58;9.20;;;6.80;;
20369;SDS011;10344;47.592;9.600;2023-04-06T20:01:24;4.40;;;3.95;;
20369;SDS011;10344;47.592;9.600;2023-04-06T20:03:58;4.55;;;3.33;;
20369;SDS011;10344;47.592;9.600;2023-04-06T20:06:24;3.30;;;3.00;;
20369;SDS011;10344;47.592;9.600;2023-04-06T20:08:50;3.67;;;3.00;;
20369;SDS011;10344;47.592;9.600;2023-04-06T20:11:16;3.28;;;2.33;;
20369;SDS011;10344;47.592;9.600;2023-04-06T20:13:45;2.50;;;2.30;;
20369;SDS011;10344;47.592;9.600;2023-04-06T20:16:13;2.60;;;2.05;;
20369;SDS011;10344;47.592;9.600;2023-04-06T20:18:39;2.20;;;2.00;;
20369;SDS011;10344;47.592;9.600;2023-04-06T20:21:09;1.77;;;1.60;;
20369;SDS011;10344;47.592;9.600;2023-04-06T20:23:35;1.90;;;1.77;;
20369;SDS011;10344;47.592;9.600;2023-04-06T20:26:03;2.47;;;2.10;;
20369;SDS011;10344;47.592;9.600;2023-04-06T20:28:31;1.75;;;1.65;;
20369;SDS011;10344;47.592;9.600;2023-04-06T20:31:00;2.58;;;1.90;;
20369;SDS011;10344;47.592;9.600;2023-04-06T20:33:27;2.30;;;2.10;;
20369;SDS011;10344;47.592;9.600;2023-04-06T20:35:57;2.10;;;1.90;;